sensor_id;sensor_type;location;lat;lon;timestamp;pressure;altitude;pressure_sealevel;temperature;humidity
20350;BME280;10332;50.208;18.988;2022-12-18T00:01:31;99465.06;;;-1.68;80.31
20350;BME280;10332;50.208;18.988;2022-12-18T00:04:01;99472.72;;;-1.68;79.90
20350;BME280;10332;50.208;18.988;2022-12-18T00:06:30;99474.44;;;-1.64;80.23
20350;BME280;10332;50.208;18.988;2022-12-18T00:08:59;99476.16;;;-1.60;79.87
20350;BME280;10332;50.208;18.988;2022-12-18T00:11:30;99483.03;;;-1.53;79.97
20350;BME280;10332;50.208;18.988;2022-12-18T00:14:00;99489.00;;;-1.45;79.96
20350;BME280;10332;50.208;18.988;2022-12-18T00:16:29;99493.28;;;-1.42;79.86
20350;BME280;10332;50.208;18.988;2022-12-18T00:19:04;99494.16;;;-1.41;79.65
20350;BME280;10332;50.208;18.988;2022-12-18T00:21:33;99494.94;;;-1.53;80.02
20350;BME280;10332;50.208;18.988;2022-12-18T00:24:01;99484.72;;;-1.49;79.53
20350;BME280;10332;50.208;18.988;2022-12-18T00:26:31;99492.38;;;-1.55;79.23
20350;BME280;10332;50.208;18.988;2022-12-18T00:29:12;99495.84;;;-1.53;79.32
20350;BME280;10332;50.208;18.988;2022-12-18T00:31:42;99499.25;;;-1.51;79.25
20350;BME280;10332;50.208;18.988;2022-12-18T00:34:12;99500.94;;;-1.50;79.58
20350;BME280;10332;50.208;18.988;2022-12-18T00:36:40;99498.38;;;-1.51;79.48
20350;BME280;10332;50.208;18.988;2022-12-18T00:39:10;99507.78;;;-1.46;79.16
20350;BME280;10332;50.208;18.988;2022-12-18T00:41:37;99503.53;;;-1.40;79.05
20350;BME280;10332;50.208;18.988;2022-12-18T00:44:23;99509.50;;;-1.35;79.00
20350;BME280;10332;50.208;18.988;2022-12-18T00:46:51;99518.91;;;-1.39;79.04
20350;BME280;10332;50.208;18.988;2022-12-18T00:49:19;99522.31;;;-1.38;78.91
20350;BME280;10332;50.208;18.988;2022-12-18T00:51:47;99518.94;;;-1.25;79.04
20350;BME280;10332;50.208;18.988;2022-12-18T00:54:15;99532.59;;;-1.20;78.44
20350;BME280;10332;50.208;18.988;2022-12-18T00:56:43;99529.16;;;-1.39;78.50
20350;BME280;10332;50.208;18.988;2022-12-18T00:59:18;99530.00;;;-1.40;78.56
20350;BME280;10332;50.208;18.988;2022-12-18T01:01:46;99537.66;;;-1.52;78.49
20350;BME280;10332;50.208;18.988;2022-12-18T01:04:14;99545.34;;;-1.48;78.50
20350;BME280;10332;50.208;18.988;2022-12-18T01:06:42;99541.91;;;-1.50;78.64
20350;BME280;10332;50.208;18.988;2022-12-18T01:09:12;99546.97;;;-1.65;78.78
20350;BME280;10332;50.208;18.988;2022-12-18T01:11:40;99546.13;;;-1.64;79.22
20350;BME280;10332;50.208;18.988;2022-12-18T01:14:08;99554.66;;;-1.63;79.05
20350;BME280;10332;50.208;18.988;2022-12-18T01:16:35;99547.00;;;-1.54;79.24
20350;BME280;10332;50.208;18.988;2022-12-18T01:19:03;99545.31;;;-1.54;79.19
20350;BME280;10332;50.208;18.988;2022-12-18T01:21:30;99544.44;;;-1.56;79.37
20350;BME280;10332;50.208;18.988;2022-12-18T01:23:58;99545.25;;;-1.63;79.48
20350;BME280;10332;50.208;18.988;2022-12-18T01:26:26;99546.13;;;-1.70;79.83
20350;BME280;10332;50.208;18.988;2022-12-18T01:28:57;99550.25;;;-1.89;80.43
20350;BME280;10332;50.208;18.988;2022-12-18T01:31:31;99552.91;;;-1.74;80.15
20350;BME280;10332;50.208;18.988;2022-12-18T01:34:04;99552.91;;;-1.74;80.23
20350;BME280;10332;50.208;18.988;2022-12-18T01:36:36;99548.63;;;-1.73;80.22
20350;BME280;10332;50.208;18.988;2022-12-18T01:39:12;99552.94;;;-1.66;80.04
20350;BME280;10332;50.208;18.988;2022-12-18T01:41:40;99562.31;;;-1.69;79.94
20350;BME280;10332;50.208;18.988;2022-12-18T01:45:01;99555.47;;;-1.78;80.37
20350;BME280;10332;50.208;18.988;2022-12-18T01:47:36;99561.44;;;-1.79;80.27
20350;BME280;10332;50.208;18.988;2022-12-18T01:50:22;99564.75;;;-1.91;80.46
20350;BME280;10332;50.208;18.988;2022-12-18T01:52:59;99568.25;;;-1.74;80.52
20350;BME280;10332;50.208;18.988;2022-12-18T01:55:31;99567.34;;;-1.86;80.68
20350;BME280;10332;50.208;18.988;2022-12-18T01:58:03;99562.28;;;-1.79;80.47
20350;BME280;10332;50.208;18.988;2022-12-18T02:00:31;99572.44;;;-1.91;80.53
20350;BME280;10332;50.208;18.988;2022-12-18T02:02:58;99577.44;;;-2.08;81.20
20350;BME280;10332;50.208;18.988;2022-12-18T02:05:58;99580.00;;;-2.08;81.24
20350;BME280;10332;50.208;18.988;2022-12-18T02:08:48;99591.16;;;-1.98;81.01
20350;BME280;10332;50.208;18.988;2022-12-18T02:15:00;99597.09;;;-2.02;81.25
20350;BME280;10332;50.208;18.988;2022-12-18T02:17:36;99590.28;;;-1.98;81.06
20350;BME280;10332;50.208;18.988;2022-12-18T02:20:16;99594.47;;;-2.13;81.17
20350;BME280;10332;50.208;18.988;2022-12-18T02:28:19;99616.78;;;-1.95;80.96
20350;BME280;10332;50.208;18.988;2022-12-18T02:30:49;99611.59;;;-2.04;80.89
20350;BME280;10332;50.208;18.988;2022-12-18T02:33:22;99608.13;;;-2.08;81.22
20350;BME280;10332;50.208;18.988;2022-12-18T02:35:53;99614.09;;;-2.07;81.55
20350;BME280;10332;50.208;18.988;2022-12-18T02:38:23;99614.22;;;-1.95;81.35
20350;BME280;10332;50.208;18.988;2022-12-18T02:40:53;99608.25;;;-1.89;81.12
20350;BME280;10332;50.208;18.988;2022-12-18T02:43:21;99618.53;;;-1.83;81.31
20350;BME280;10332;50.208;18.988;2022-12-18T02:45:54;99625.41;;;-1.78;81.09
20350;BME280;10332;50.208;18.988;2022-12-18T02:48:31;99635.72;;;-1.70;80.28
20350;BME280;10332;50.208;18.988;2022-12-18T02:51:23;99630.59;;;-1.70;80.39
20350;BME280;10332;50.208;18.988;2022-12-18T02:54:20;99640.78;;;-1.79;80.74
20350;BME280;10332;50.208;18.988;2022-12-18T02:56:55;99651.03;;;-1.76;80.46
20350;BME280;10332;50.208;18.988;2022-12-18T02:59:38;99659.53;;;-1.79;80.79
20350;BME280;10332;50.208;18.988;2022-12-18T03:05:43;99654.44;;;-1.76;80.61
20350;BME280;10332;50.208;18.988;2022-12-18T03:10:29;99657.84;;;-1.80;80.34
20350;BME280;10332;50.208;18.988;2022-12-18T03:13:13;99661.97;;;-1.94;81.00
20350;BME280;10332;50.208;18.988;2022-12-18T03:15:48;99668.88;;;-1.85;81.06
20350;BME280;10332;50.208;18.988;2022-12-18T03:18:25;99667.09;;;-1.94;81.22
20350;BME280;10332;50.208;18.988;2022-12-18T03:21:00;99666.31;;;-1.82;81.07
20350;BME280;10332;50.208;18.988;2022-12-18T03:23:36;99664.66;;;-1.77;80.93
20350;BME280;10332;50.208;18.988;2022-12-18T03:26:16;99668.88;;;-1.82;80.89
20350;BME280;10332;50.208;18.988;2022-12-18T03:28:53;99669.00;;;-1.70;80.70
20350;BME280;10332;50.208;18.988;2022-12-18T03:31:24;99662.97;;;-1.75;80.79
20350;BME280;10332;50.208;18.988;2022-12-18T03:33:58;99667.19;;;-1.83;80.95
20350;BME280;10332;50.208;18.988;2022-12-18T03:36:27;99668.09;;;-1.77;80.90
20350;BME280;10332;50.208;18.988;2022-12-18T03:38:54;99669.78;;;-1.74;80.74
20350;BME280;10332;50.208;18.988;2022-12-18T03:53:55;99676.53;;;-1.88;80.98
20350;BME280;10332;50.208;18.988;2022-12-18T03:56:31;99688.50;;;-1.84;80.60
20350;BME280;10332;50.208;18.988;2022-12-18T03:59:02;99696.09;;;-1.95;81.20
20350;BME280;10332;50.208;18.988;2022-12-18T04:01:37;99689.28;;;-1.90;81.29
20350;BME280;10332;50.208;18.988;2022-12-18T04:04:08;99692.78;;;-1.82;81.24
20350;BME280;10332;50.208;18.988;2022-12-18T04:06:38;99697.88;;;-1.83;81.22
20350;BME280;10332;50.208;18.988;2022-12-18T04:09:07;99703.06;;;-1.76;81.23
20350;BME280;10332;50.208;18.988;2022-12-18T04:11:35;99699.59;;;-1.85;81.19
20350;BME280;10332;50.208;18.988;2022-12-18T04:14:02;99700.44;;;-1.83;81.28
20350;BME280;10332;50.208;18.988;2022-12-18T04:16:33;99702.22;;;-1.75;81.21
20350;BME280;10332;50.208;18.988;2022-12-18T04:19:01;99707.34;;;-1.73;80.95
20350;BME280;10332;50.208;18.988;2022-12-18T04:21:28;99704.78;;;-1.72;80.87
20350;BME280;10332;50.208;18.988;2022-12-18T04:23:55;99706.47;;;-1.78;81.15
20350;BME280;10332;50.208;18.988;2022-12-18T04:26:23;99714.16;;;-1.74;81.10
20350;BME280;10332;50.208;18.988;2022-12-18T04:28:50;99715.88;;;-1.74;81.27
20350;BME280;10332;50.208;18.988;2022-12-18T04:31:17;99718.50;;;-1.66;80.99
20350;BME280;10332;50.208;18.988;2022-12-18T04:33:45;99731.16;;;-1.83;80.98
20350;BME280;10332;50.208;18.988;2022-12-18T04:36:12;99740.56;;;-1.81;81.10
20350;BME280;10332;50.208;18.988;2022-12-18T04:38:40;99734.59;;;-1.81;81.26
20350;BME280;10332;50.208;18.988;2022-12-18T04:41:07;99736.28;;;-1.82;81.46
20350;BME280;10332;50.208;18.988;2022-12-18T04:43:35;99732.84;;;-1.88;81.84
20350;BME280;10332;50.208;18.988;2022-12-18T04:46:07;99743.13;;;-1.81;81.47
20350;BME280;10332;50.208;18.988;2022-12-18T04:48:36;99744.81;;;-1.81;81.31
20350;BME280;10332;50.208;18.988;2022-12-18T04:51:05;99749.94;;;-1.81;81.49
20350;BME280;10332;50.208;18.988;2022-12-18T04:53:33;99754.25;;;-1.77;81.40
20350;BME280;10332;50.208;18.988;2022-12-18T04:56:10;99755.97;;;-1.76;81.08
20350;BME280;10332;50.208;18.988;2022-12-18T04:58:39;99755.13;;;-1.72;81.19
20350;BME280;10332;50.208;18.988;2022-12-18T05:01:08;99763.66;;;-1.73;80.79
20350;BME280;10332;50.208;18.988;2022-12-18T05:03:37;99766.13;;;-1.85;81.12
20350;BME280;10332;50.208;18.988;2022-12-18T05:06:06;99775.56;;;-1.80;81.20
20350;BME280;10332;50.208;18.988;2022-12-18T05:08:34;99776.47;;;-1.72;81.33
20350;BME280;10332;50.208;18.988;2022-12-18T05:11:09;99780.78;;;-1.66;81.02
20350;BME280;10332;50.208;18.988;2022-12-18T05:13:38;99774.75;;;-1.71;80.99
20350;BME280;10332;50.208;18.988;2022-12-18T05:16:07;99774.81;;;-1.63;80.91
20350;BME280;10332;50.208;18.988;2022-12-18T05:18:35;99775.66;;;-1.67;80.85
20350;BME280;10332;50.208;18.988;2022-12-18T05:21:03;99781.59;;;-1.72;80.96
20350;BME280;10332;50.208;18.988;2022-12-18T05:23:30;99777.38;;;-1.69;80.68
20350;BME280;10332;50.208;18.988;2022-12-18T05:26:01;99785.94;;;-1.63;80.55
20350;BME280;10332;50.208;18.988;2022-12-18T05:28:31;99783.34;;;-1.64;80.83
20350;BME280;10332;50.208;18.988;2022-12-18T05:31:01;99785.97;;;-1.61;80.82
20350;BME280;10332;50.208;18.988;2022-12-18T05:33:33;99789.25;;;-1.75;81.17
20350;BME280;10332;50.208;18.988;2022-12-18T05:36:04;99802.88;;;-1.77;81.05
20350;BME280;10332;50.208;18.988;2022-12-18T05:38:36;99788.50;;;-1.63;80.84
20350;BME280;10332;50.208;18.988;2022-12-18T05:41:05;99791.91;;;-1.62;80.97
20350;BME280;10332;50.208;18.988;2022-12-18T05:43:35;99791.88;;;-1.65;80.95
20350;BME280;10332;50.208;18.988;2022-12-18T05:46:11;99797.00;;;-1.68;80.89
20350;BME280;10332;50.208;18.988;2022-12-18T05:48:41;99807.31;;;-1.56;80.73
20350;BME280;10332;50.208;18.988;2022-12-18T05:51:12;99811.59;;;-1.57;80.70
20350;BME280;10332;50.208;18.988;2022-12-18T05:53:42;99807.22;;;-1.70;80.51
20350;BME280;10332;50.208;18.988;2022-12-18T05:56:19;99804.59;;;-1.76;80.57
20350;BME280;10332;50.208;18.988;2022-12-18T05:58:52;99804.59;;;-1.76;80.65
20350;BME280;10332;50.208;18.988;2022-12-18T06:01:24;99805.47;;;-1.73;80.78
20350;BME280;10332;50.208;18.988;2022-12-18T06:03:53;99815.53;;;-1.91;81.64
20350;BME280;10332;50.208;18.988;2022-12-18T06:06:27;99812.19;;;-1.85;81.28
20350;BME280;10332;50.208;18.988;2022-12-18T06:08:55;99811.44;;;-1.75;81.19
20350;BME280;10332;50.208;18.988;2022-12-18T06:11:26;99821.66;;;-1.78;81.14
20350;BME280;10332;50.208;18.988;2022-12-18T06:13:56;99819.03;;;-1.84;81.29
20350;BME280;10332;50.208;18.988;2022-12-18T06:16:27;99817.31;;;-1.87;81.29
20350;BME280;10332;50.208;18.988;2022-12-18T06:19:00;99814.84;;;-1.73;81.24
20350;BME280;10332;50.208;18.988;2022-12-18T06:21:30;99826.00;;;-1.68;81.00
20350;BME280;10332;50.208;18.988;2022-12-18T06:23:59;99825.16;;;-1.68;80.72
20350;BME280;10332;50.208;18.988;2022-12-18T06:26:26;99830.31;;;-1.62;80.79
20350;BME280;10332;50.208;18.988;2022-12-18T06:28:55;99842.25;;;-1.64;80.46
20350;BME280;10332;50.208;18.988;2022-12-18T06:31:22;99832.84;;;-1.68;80.56
20350;BME280;10332;50.208;18.988;2022-12-18T06:33:50;99847.28;;;-1.72;80.53
20350;BME280;10332;50.208;18.988;2022-12-18T06:36:17;99845.56;;;-1.73;80.71
20350;BME280;10332;50.208;18.988;2022-12-18T06:38:45;99846.50;;;-1.66;80.85
20350;BME280;10332;50.208;18.988;2022-12-18T06:41:19;99850.00;;;-1.58;80.47
20350;BME280;10332;50.208;18.988;2022-12-18T06:43:47;99858.56;;;-1.55;80.26
20350;BME280;10332;50.208;18.988;2022-12-18T06:46:14;99858.53;;;-1.58;80.12
20350;BME280;10332;50.208;18.988;2022-12-18T06:48:42;99865.28;;;-1.63;80.49
20350;BME280;10332;50.208;18.988;2022-12-18T06:51:20;99868.75;;;-1.61;80.18
20350;BME280;10332;50.208;18.988;2022-12-18T06:53:48;99872.13;;;-1.62;80.09
20350;BME280;10332;50.208;18.988;2022-12-18T06:56:16;99868.75;;;-1.59;80.50
20350;BME280;10332;50.208;18.988;2022-12-18T06:58:43;99874.75;;;-1.56;80.10
20350;BME280;10332;50.208;18.988;2022-12-18T07:01:12;99881.59;;;-1.55;79.95
20350;BME280;10332;50.208;18.988;2022-12-18T07:03:42;99880.78;;;-1.52;79.81
20350;BME280;10332;50.208;18.988;2022-12-18T07:06:19;99885.94;;;-1.45;79.74
20350;BME280;10332;50.208;18.988;2022-12-18T07:08:48;99885.09;;;-1.48;80.00
20350;BME280;10332;50.208;18.988;2022-12-18T07:11:17;99885.16;;;-1.37;79.95
20350;BME280;10332;50.208;18.988;2022-12-18T07:13:46;99900.59;;;-1.34;79.67
20350;BME280;10332;50.208;18.988;2022-12-18T07:16:19;99900.59;;;-1.34;79.57
20350;BME280;10332;50.208;18.988;2022-12-18T07:18:54;99902.31;;;-1.30;79.33
20350;BME280;10332;50.208;18.988;2022-12-18T07:21:23;99914.34;;;-1.20;79.27
20350;BME280;10332;50.208;18.988;2022-12-18T07:23:51;99901.63;;;-1.11;79.17
20350;BME280;10332;50.208;18.988;2022-12-18T07:26:21;99905.91;;;-1.10;78.83
20350;BME280;10332;50.208;18.988;2022-12-18T07:28:49;99918.75;;;-1.05;78.22
20350;BME280;10332;50.208;18.988;2022-12-18T07:31:20;99912.06;;;-0.90;78.09
20350;BME280;10332;50.208;18.988;2022-12-18T07:33:50;99918.91;;;-0.82;77.76
20350;BME280;10332;50.208;18.988;2022-12-18T07:36:18;99918.13;;;-0.75;77.43
20350;BME280;10332;50.208;18.988;2022-12-18T07:38:50;99924.22;;;-0.63;77.19
20350;BME280;10332;50.208;18.988;2022-12-18T07:41:20;99927.75;;;-0.42;77.13
20350;BME280;10332;50.208;18.988;2022-12-18T07:43:48;99924.34;;;-0.40;76.38
20350;BME280;10332;50.208;18.988;2022-12-18T07:46:17;99928.75;;;-0.14;76.39
20350;BME280;10332;50.208;18.988;2022-12-18T07:48:45;99921.94;;;-0.03;75.85
20350;BME280;10332;50.208;18.988;2022-12-18T07:51:17;99920.25;;;0.05;75.61
20350;BME280;10332;50.208;18.988;2022-12-18T07:53:45;99913.44;;;0.10;74.89
20350;BME280;10332;50.208;18.988;2022-12-18T07:56:20;99924.63;;;0.29;74.30
20350;BME280;10332;50.208;18.988;2022-12-18T07:58:58;99922.03;;;0.26;72.87
20350;BME280;10332;50.208;18.988;2022-12-18T08:01:27;99922.13;;;0.70;72.63
20350;BME280;10332;50.208;18.988;2022-12-18T08:03:54;99921.28;;;1.12;71.68
20350;BME280;10332;50.208;18.988;2022-12-18T08:06:23;99916.97;;;1.47;70.68
20350;BME280;10332;50.208;18.988;2022-12-18T08:08:52;99924.66;;;1.65;69.94
20350;BME280;10332;50.208;18.988;2022-12-18T08:11:22;99922.03;;;1.83;69.57
20350;BME280;10332;50.208;18.988;2022-12-18T08:13:50;99930.59;;;1.91;69.28
20350;BME280;10332;50.208;18.988;2022-12-18T08:16:19;99925.38;;;1.97;69.06
20350;BME280;10332;50.208;18.988;2022-12-18T08:18:48;99944.28;;;1.96;67.75
20350;BME280;10332;50.208;18.988;2022-12-18T08:21:24;99937.41;;;2.00;67.09
20350;BME280;10332;50.208;18.988;2022-12-18T08:23:55;99939.16;;;1.87;65.84
20350;BME280;10332;50.208;18.988;2022-12-18T08:26:25;99941.72;;;1.99;66.02
20350;BME280;10332;50.208;18.988;2022-12-18T08:28:55;99945.88;;;2.23;65.89
20350;BME280;10332;50.208;18.988;2022-12-18T08:31:24;99950.91;;;2.52;65.75
20350;BME280;10332;50.208;18.988;2022-12-18T08:33:53;99949.03;;;2.76;64.02
20350;BME280;10332;50.208;18.988;2022-12-18T08:36:22;99951.38;;;3.11;63.18
20350;BME280;10332;50.208;18.988;2022-12-18T08:38:51;99948.44;;;3.52;61.97
20350;BME280;10332;50.208;18.988;2022-12-18T08:41:19;99956.66;;;4.60;60.43
20350;BME280;10332;50.208;18.988;2022-12-18T08:43:47;99961.44;;;5.38;59.64
20350;BME280;10332;50.208;18.988;2022-12-18T08:46:41;99958.31;;;6.17;56.59
20350;BME280;10332;50.208;18.988;2022-12-18T08:49:11;99959.72;;;7.10;53.51
20350;BME280;10332;50.208;18.988;2022-12-18T08:51:39;99958.00;;;7.78;52.68
20350;BME280;10332;50.208;18.988;2022-12-18T08:54:07;99964.09;;;8.40;50.50
20350;BME280;10332;50.208;18.988;2022-12-18T08:56:34;99976.88;;;8.77;48.10
20350;BME280;10332;50.208;18.988;2022-12-18T08:59:02;99975.41;;;8.97;46.87
20350;BME280;10332;50.208;18.988;2022-12-18T09:01:31;99968.13;;;9.08;47.33
20350;BME280;10332;50.208;18.988;2022-12-18T09:04:00;99967.91;;;9.41;46.53
20350;BME280;10332;50.208;18.988;2022-12-18T09:06:27;99973.53;;;10.30;45.47
20350;BME280;10332;50.208;18.988;2022-12-18T09:08:54;99982.19;;;10.77;43.56
20350;BME280;10332;50.208;18.988;2022-12-18T09:11:25;99984.25;;;10.45;43.06
20350;BME280;10332;50.208;18.988;2022-12-18T09:13:55;99982.84;;;9.87;42.75
20350;BME280;10332;50.208;18.988;2022-12-18T09:16:25;99981.78;;;9.67;43.55
20350;BME280;10332;50.208;18.988;2022-12-18T09:18:59;99994.25;;;10.34;43.81
20350;BME280;10332;50.208;18.988;2022-12-18T09:21:34;99987.19;;;11.69;40.42
20350;BME280;10332;50.208;18.988;2022-12-18T09:24:04;99979.88;;;12.37;37.78
20350;BME280;10332;50.208;18.988;2022-12-18T09:26:35;99971.69;;;13.37;36.70
20350;BME280;10332;50.208;18.988;2022-12-18T09:29:03;99972.97;;;14.15;35.29
20350;BME280;10332;50.208;18.988;2022-12-18T09:31:31;99975.22;;;15.79;35.52
20350;BME280;10332;50.208;18.988;2022-12-18T09:33:58;99964.88;;;16.61;33.46
20350;BME280;10332;50.208;18.988;2022-12-18T09:36:26;99976.94;;;17.60;30.54
20350;BME280;10332;50.208;18.988;2022-12-18T09:38:53;99983.47;;;18.71;29.33
20350;BME280;10332;50.208;18.988;2022-12-18T09:41:43;99982.97;;;19.26;28.67
20350;BME280;10332;50.208;18.988;2022-12-18T09:44:21;99978.09;;;20.26;28.00
20350;BME280;10332;50.208;18.988;2022-12-18T09:47:04;99986.97;;;20.02;26.07
20350;BME280;10332;50.208;18.988;2022-12-18T09:49:40;99983.25;;;20.16;26.60
20350;BME280;10332;50.208;18.988;2022-12-18T09:52:26;99983.78;;;20.77;25.45
20350;BME280;10332;50.208;18.988;2022-12-18T09:55:24;99987.28;;;20.55;24.13
20350;BME280;10332;50.208;18.988;2022-12-18T10:00:53;99996.84;;;16.71;27.55
20350;BME280;10332;50.208;18.988;2022-12-18T10:03:21;100000.38;;;14.09;29.18
20350;BME280;10332;50.208;18.988;2022-12-18T10:20:57;99984.78;;;9.82;35.19
20350;BME280;10332;50.208;18.988;2022-12-18T10:23:56;99983.69;;;9.87;35.79
20350;BME280;10332;50.208;18.988;2022-12-18T10:26:26;99981.94;;;9.88;36.39
20350;BME280;10332;50.208;18.988;2022-12-18T10:28:54;99979.72;;;10.02;36.78
20350;BME280;10332;50.208;18.988;2022-12-18T10:31:24;99976.09;;;9.81;36.79
20350;BME280;10332;50.208;18.988;2022-12-18T10:33:54;99971.28;;;9.44;37.15
20350;BME280;10332;50.208;18.988;2022-12-18T10:36:24;99961.19;;;9.07;37.72
20350;BME280;10332;50.208;18.988;2022-12-18T10:38:51;99964.25;;;9.46;37.57
20350;BME280;10332;50.208;18.988;2022-12-18T10:46:39;99950.53;;;9.66;36.82
20350;BME280;10332;50.208;18.988;2022-12-18T10:49:22;99954.50;;;9.53;37.46
20350;BME280;10332;50.208;18.988;2022-12-18T10:54:35;99946.75;;;12.36;34.56
20350;BME280;10332;50.208;18.988;2022-12-18T10:57:39;99952.84;;;15.26;31.11
20350;BME280;10332;50.208;18.988;2022-12-18T11:00:29;99945.84;;;16.85;29.45
20350;BME280;10332;50.208;18.988;2022-12-18T11:02:57;99940.34;;;16.32;29.48
20350;BME280;10332;50.208;18.988;2022-12-18T11:05:33;99943.03;;;14.98;28.24
20350;BME280;10332;50.208;18.988;2022-12-18T11:08:02;99941.00;;;14.56;30.13
20350;BME280;10332;50.208;18.988;2022-12-18T11:10:37;99929.31;;;13.62;31.21
20350;BME280;10332;50.208;18.988;2022-12-18T11:13:21;99924.31;;;13.04;31.46
20350;BME280;10332;50.208;18.988;2022-12-18T11:15:50;99922.59;;;13.22;31.39
20350;BME280;10332;50.208;18.988;2022-12-18T11:18:26;99925.06;;;12.89;31.78
20350;BME280;10332;50.208;18.988;2022-12-18T11:21:05;99917.41;;;13.20;31.52
20350;BME280;10332;50.208;18.988;2022-12-18T11:23:35;99921.66;;;12.11;32.16
20350;BME280;10332;50.208;18.988;2022-12-18T11:26:05;99926.88;;;11.52;33.54
20350;BME280;10332;50.208;18.988;2022-12-18T11:29:08;99933.03;;;11.08;33.63
20350;BME280;10332;50.208;18.988;2022-12-18T11:31:36;99938.22;;;11.30;34.42
20350;BME280;10332;50.208;18.988;2022-12-18T11:34:12;99939.41;;;11.23;34.06
20350;BME280;10332;50.208;18.988;2022-12-18T11:37:00;99937.28;;;11.74;34.29
20350;BME280;10332;50.208;18.988;2022-12-18T11:39:46;99929.75;;;13.87;33.13
20350;BME280;10332;50.208;18.988;2022-12-18T11:48:03;99935.88;;;23.65;23.62
20350;BME280;10332;50.208;18.988;2022-12-18T11:50:57;99931.47;;;24.40;20.70
20350;BME280;10332;50.208;18.988;2022-12-18T11:53:27;99940.84;;;24.71;21.53
20350;BME280;10332;50.208;18.988;2022-12-18T11:56:27;99941.75;;;25.79;19.88
20350;BME280;10332;50.208;18.988;2022-12-18T12:01:52;99950.66;;;21.68;21.74
20350;BME280;10332;50.208;18.988;2022-12-18T12:14:04;99953.81;;;24.39;20.41
20350;BME280;10332;50.208;18.988;2022-12-18T12:22:17;99962.81;;;25.99;18.11
20350;BME280;10332;50.208;18.988;2022-12-18T12:25:43;99966.88;;;27.14;17.29
20350;BME280;10332;50.208;18.988;2022-12-18T12:40:04;99967.94;;;27.54;16.61
20350;BME280;10332;50.208;18.988;2022-12-18T12:43:03;99966.56;;;28.15;17.29
20350;BME280;10332;50.208;18.988;2022-12-18T12:48:42;99970.25;;;28.22;16.51
20350;BME280;10332;50.208;18.988;2022-12-18T12:51:34;99970.41;;;28.12;17.40
20350;BME280;10332;50.208;18.988;2022-12-18T12:54:10;99977.34;;;27.74;16.77
20350;BME280;10332;50.208;18.988;2022-12-18T12:56:45;99987.91;;;27.59;15.96
20350;BME280;10332;50.208;18.988;2022-12-18T12:59:37;99985.22;;;27.59;17.27
20350;BME280;10332;50.208;18.988;2022-12-18T13:02:53;99984.31;;;27.18;16.96
20350;BME280;10332;50.208;18.988;2022-12-18T13:05:30;99985.00;;;27.28;17.28
20350;BME280;10332;50.208;18.988;2022-12-18T13:08:26;99977.84;;;26.95;17.31
20350;BME280;10332;50.208;18.988;2022-12-18T13:10:59;99979.97;;;26.75;17.40
20350;BME280;10332;50.208;18.988;2022-12-18T13:13:55;99977.56;;;26.55;17.43
20350;BME280;10332;50.208;18.988;2022-12-18T13:16:26;99983.06;;;26.02;18.10
20350;BME280;10332;50.208;18.988;2022-12-18T13:18:57;99985.94;;;25.29;18.45
20350;BME280;10332;50.208;18.988;2022-12-18T13:21:30;99995.53;;;25.04;18.73
20350;BME280;10332;50.208;18.988;2022-12-18T13:24:26;99986.53;;;24.78;18.50
20350;BME280;10332;50.208;18.988;2022-12-18T13:26:54;100003.03;;;24.17;19.02
20350;BME280;10332;50.208;18.988;2022-12-18T13:29:45;100009.13;;;23.51;19.33
20350;BME280;10332;50.208;18.988;2022-12-18T13:32:23;100000.94;;;23.04;19.52
20350;BME280;10332;50.208;18.988;2022-12-18T13:37:52;99994.81;;;22.01;19.79
20350;BME280;10332;50.208;18.988;2022-12-18T13:43:32;99997.38;;;20.39;21.19
20350;BME280;10332;50.208;18.988;2022-12-18T13:48:57;100009.03;;;19.68;22.08
20350;BME280;10332;50.208;18.988;2022-12-18T13:51:26;100005.78;;;19.16;22.58
20350;BME280;10332;50.208;18.988;2022-12-18T13:53:58;100006.34;;;18.96;22.97
20350;BME280;10332;50.208;18.988;2022-12-18T13:56:32;100004.84;;;18.30;22.78
20350;BME280;10332;50.208;18.988;2022-12-18T13:59:14;100004.38;;;17.72;23.28
20350;BME280;10332;50.208;18.988;2022-12-18T14:02:00;100008.03;;;16.89;24.27
20350;BME280;10332;50.208;18.988;2022-12-18T14:04:35;100005.22;;;14.99;25.84
20350;BME280;10332;50.208;18.988;2022-12-18T14:07:21;100001.72;;;14.01;26.83
20350;BME280;10332;50.208;18.988;2022-12-18T14:09:57;100001.66;;;13.50;27.42
20350;BME280;10332;50.208;18.988;2022-12-18T14:12:48;100002.00;;;12.31;28.81
20350;BME280;10332;50.208;18.988;2022-12-18T14:15:43;100013.72;;;10.72;31.19
20350;BME280;10332;50.208;18.988;2022-12-18T14:18:38;100012.78;;;10.02;32.22
20350;BME280;10332;50.208;18.988;2022-12-18T14:21:29;100010.91;;;9.01;33.79
20350;BME280;10332;50.208;18.988;2022-12-18T14:24:23;100013.94;;;8.25;34.30
20350;BME280;10332;50.208;18.988;2022-12-18T14:26:51;100009.72;;;7.56;35.29
20350;BME280;10332;50.208;18.988;2022-12-18T14:29:30;100007.03;;;6.86;36.73
20350;BME280;10332;50.208;18.988;2022-12-18T14:34:50;100008.72;;;5.53;39.19
20350;BME280;10332;50.208;18.988;2022-12-18T14:37:24;100022.72;;;4.82;41.12
20350;BME280;10332;50.208;18.988;2022-12-18T14:42:27;100031.69;;;3.80;43.33
20350;BME280;10332;50.208;18.988;2022-12-18T14:45:34;100023.41;;;3.40;44.95
20350;BME280;10332;50.208;18.988;2022-12-18T14:48:43;100018.56;;;2.94;45.54
20350;BME280;10332;50.208;18.988;2022-12-18T14:51:23;100032.44;;;2.75;45.69
20350;BME280;10332;50.208;18.988;2022-12-18T14:53:58;100033.41;;;2.52;46.22
20350;BME280;10332;50.208;18.988;2022-12-18T14:56:31;100042.91;;;2.34;46.08
20350;BME280;10332;50.208;18.988;2022-12-18T14:59:23;100038.69;;;2.13;47.45
20350;BME280;10332;50.208;18.988;2022-12-18T15:04:41;100044.75;;;1.78;48.69
20350;BME280;10332;50.208;18.988;2022-12-18T15:07:21;100045.63;;;1.74;48.12
20350;BME280;10332;50.208;18.988;2022-12-18T15:10:17;100055.09;;;1.63;47.88
20350;BME280;10332;50.208;18.988;2022-12-18T15:20:59;100055.03;;;1.00;50.33
20350;BME280;10332;50.208;18.988;2022-12-18T15:23:59;100062.66;;;0.77;51.29